Time;durP1;ratioP1;P1;durP2;ratioP2;P2;SDS_P1;SDS_P2;PMS_P1;PMS_P2;Temp;Humidity;BMP_temperature;BMP_pressure;BME280_temperature;BME280_humidity;BME280_pressure;Samples;Min_cycle;Max_cycle;Signal;HPM_P1;HPM_P2
2021/04/27 00:00:24;;;;;;;3.35;2.50;;;4.70;99.10;;;;;;5013263;28;20032;-73
2021/04/27 00:02:50;;;;;;;3.08;2.38;;;4.80;98.60;;;;;;5013304;28;20033;-72
2021/04/27 00:05:17;;;;;;;2.58;2.20;;;4.60;98.60;;;;;;5018085;28;20087;-72
2021/04/27 00:07:43;;;;;;;5.60;2.53;;;4.60;99.90;;;;;;5013186;28;20045;-72
2021/04/27 00:10:11;;;;;;;3.08;2.50;;;4.50;99.80;;;;;;5013233;28;20034;-72
2021/04/27 00:12:37;;;;;;;4.05;2.60;;;4.60;99.10;;;;;;5011651;28;20033;-71
2021/04/27 00:15:08;;;;;;;3.53;2.45;;;4.70;98.80;;;;;;5012888;28;20025;-74
2021/04/27 00:17:33;;;;;;;4.22;2.88;;;4.60;99.60;;;;;;4999602;28;20030;-72
2021/04/27 00:19:59;;;;;;;3.70;2.22;;;4.60;99.00;;;;;;5012950;28;20100;-72
2021/04/27 00:22:24;;;;;;;4.65;2.72;;;4.70;98.70;;;;;;5012776;28;20121;-72
2021/04/27 00:24:50;;;;;;;3.78;2.67;;;4.70;98.70;;;;;;5012683;28;20030;-72
2021/04/27 00:27:15;;;;;;;5.10;2.38;;;4.60;98.80;;;;;;5012802;28;20030;-72
2021/04/27 00:29:41;;;;;;;3.75;2.60;;;4.70;98.20;;;;;;5012923;28;20480;-71
2021/04/27 00:32:07;;;;;;;3.25;2.83;;;4.70;98.60;;;;;;5011518;28;20029;-74
2021/04/27 00:34:32;;;;;;;5.15;2.75;;;4.70;98.50;;;;;;5012530;28;20025;-73
2021/04/27 00:36:58;;;;;;;3.88;2.45;;;4.70;98.50;;;;;;5012551;28;20044;-74
2021/04/27 00:39:24;;;;;;;6.32;2.58;;;4.70;98.20;;;;;;5011309;28;20095;-74
2021/04/27 00:41:49;;;;;;;3.10;2.80;;;4.60;98.20;;;;;;5012405;28;20108;-71
2021/04/27 00:44:15;;;;;;;3.05;2.53;;;4.60;98.30;;;;;;5005436;28;20053;-74
2021/04/27 00:46:41;;;;;;;4.20;2.92;;;4.60;98.50;;;;;;5006196;28;20468;-75
2021/04/27 00:49:06;;;;;;;3.75;2.33;;;4.60;98.00;;;;;;5011218;28;20018;-73
2021/04/27 00:51:33;;;;;;;4.55;2.50;;;4.80;98.40;;;;;;5011298;28;20503;-73
2021/04/27 00:53:58;;;;;;;2.50;2.10;;;4.60;97.80;;;;;;5010790;28;20026;-73
2021/04/27 00:56:24;;;;;;;2.88;2.58;;;4.60;98.70;;;;;;4997940;28;20518;-73
2021/04/27 00:58:50;;;;;;;3.33;2.60;;;4.60;98.00;;;;;;5012285;28;20038;-73
2021/04/27 01:01:16;;;;;;;3.15;2.53;;;4.60;97.90;;;;;;4999101;28;20026;-71
2021/04/27 01:03:41;;;;;;;3.53;2.60;;;4.70;97.60;;;;;;5010851;28;20029;-71
2021/04/27 01:06:08;;;;;;;2.95;2.53;;;4.70;97.40;;;;;;5012223;28;20072;-72
2021/04/27 01:08:51;;;;;;;4.85;2.60;;;4.70;97.80;;;;;;5005223;28;20029;-70
2021/04/27 01:11:29;;;;;;;4.03;3.03;;;4.70;97.40;;;;;;5005238;28;20393;-72
2021/04/27 01:14:10;;;;;;;3.53;2.80;;;4.60;97.70;;;;;;5011971;28;20034;-72
2021/04/27 01:16:50;;;;;;;3.95;2.80;;;4.50;97.70;;;;;;5010787;28;20030;-72
2021/04/27 01:19:23;;;;;;;6.50;2.50;;;4.60;97.60;;;;;;5010792;28;20101;-71
2021/04/27 01:21:49;;;;;;;3.45;2.60;;;4.60;98.20;;;;;;5012033;28;20088;-72
2021/04/27 01:24:16;;;;;;;3.83;2.75;;;4.50;98.00;;;;;;5010512;28;20026;-72
2021/04/27 01:26:47;;;;;;;4.50;2.70;;;4.60;97.50;;;;;;5002339;28;20034;-72
2021/04/27 01:29:16;;;;;;;4.32;2.20;;;4.60;97.70;;;;;;5005530;28;20098;-72
2021/04/27 01:31:42;;;;;;;4.65;2.25;;;4.50;98.30;;;;;;5001319;28;20026;-73
2021/04/27 01:34:08;;;;;;;3.97;3.13;;;4.50;98.30;;;;;;5011785;28;20029;-72
2021/04/27 01:36:35;;;;;;;3.88;2.50;;;4.60;97.40;;;;;;5011920;28;20453;-73
2021/04/27 01:39:01;;;;;;;6.93;2.45;;;4.50;97.70;;;;;;5011949;28;20388;-73
2021/04/27 01:41:27;;;;;;;3.10;2.40;;;4.60;97.60;;;;;;5011537;28;20063;-72
2021/04/27 01:43:53;;;;;;;3.53;2.60;;;4.50;97.80;;;;;;5011740;28;20026;-71
2021/04/27 01:46:20;;;;;;;5.32;2.83;;;4.40;98.20;;;;;;5011711;28;20030;-75
2021/04/27 01:48:47;;;;;;;3.65;2.42;;;4.40;98.30;;;;;;5011807;28;20541;-75
2021/04/27 01:51:12;;;;;;;3.88;2.33;;;4.30;98.60;;;;;;5011735;28;20503;-75
2021/04/27 01:53:40;;;;;;;3.38;2.35;;;4.40;97.80;;;;;;5011503;28;20026;-75
2021/04/27 01:56:06;;;;;;;4.60;2.92;;;4.40;97.60;;;;;;5010376;28;20635;-75
2021/04/27 01:58:32;;;;;;;3.40;2.85;;;4.40;98.30;;;;;;5011549;28;20018;-76
2021/04/27 02:00:58;;;;;;;4.72;2.78;;;4.30;98.40;;;;;;5011838;28;20636;-76
2021/04/27 02:03:25;;;;;;;4.68;2.50;;;4.20;98.50;;;;;;5010228;28;20026;-75
2021/04/27 02:05:51;;;;;;;3.40;2.45;;;4.20;98.80;;;;;;5011526;28;20488;-76
2021/04/27 02:08:16;;;;;;;4.35;2.22;;;4.10;98.20;;;;;;5011579;28;20037;-73
2021/04/27 02:10:42;;;;;;;5.82;2.70;;;4.20;97.50;;;;;;5000259;28;20035;-74
2021/04/27 02:13:12;;;;;;;3.40;2.28;;;4.30;97.80;;;;;;5003980;28;20046;-73
2021/04/27 02:15:39;;;;;;;3.58;2.28;;;4.30;98.20;;;;;;5003689;28;20612;-73
2021/04/27 02:18:16;;;;;;;3.00;2.53;;;4.20;98.00;;;;;;5011492;28;20025;-74
2021/04/27 02:20:42;;;;;;;3.92;2.13;;;4.10;98.50;;;;;;4998248;28;20026;-73
2021/04/27 02:23:08;;;;;;;4.35;2.70;;;4.00;98.90;;;;;;4992000;28;20038;-75
2021/04/27 02:25:35;;;;;;;6.05;2.67;;;4.10;98.80;;;;;;5003514;28;20065;-74
2021/04/27 02:28:01;;;;;;;4.82;2.60;;;4.00;98.80;;;;;;4998610;28;20472;-74
2021/04/27 02:30:27;;;;;;;3.80;2.83;;;4.10;98.90;;;;;;5011465;28;20041;-74
2021/04/27 02:32:54;;;;;;;3.90;2.60;;;4.00;98.60;;;;;;5003842;28;20473;-73
2021/04/27 02:35:21;;;;;;;3.92;2.58;;;4.00;98.40;;;;;;5003455;28;20124;-74
2021/04/27 02:37:49;;;;;;;4.93;2.60;;;4.00;98.90;;;;;;4992964;28;20512;-74
2021/04/27 02:40:27;;;;;;;3.95;2.40;;;4.10;98.60;;;;;;5009240;28;20029;-73
2021/04/27 02:42:55;;;;;;;6.05;2.42;;;4.00;99.10;;;;;;5014963;28;20030;-74
2021/04/27 02:45:21;;;;;;;5.15;2.35;;;4.00;98.90;;;;;;5014538;28;20037;-74
2021/04/27 02:47:47;;;;;;;5.63;2.47;;;4.00;98.70;;;;;;5014790;28;20033;-74
2021/04/27 02:50:14;;;;;;;4.93;2.63;;;4.10;99.00;;;;;;5001645;28;20027;-74
2021/04/27 02:52:41;;;;;;;4.13;2.40;;;4.00;99.30;;;;;;5004354;28;20059;-73
2021/04/27 02:55:09;;;;;;;3.03;2.45;;;3.90;99.40;;;;;;5007878;28;20030;-74
2021/04/27 02:57:35;;;;;;;3.97;2.30;;;3.90;99.90;;;;;;5004626;28;20026;-74
2021/04/27 03:00:01;;;;;;;4.00;2.55;;;3.80;99.70;;;;;;5014531;28;20470;-73
2021/04/27 03:02:26;;;;;;;4.05;2.28;;;3.80;99.80;;;;;;5014389;28;20511;-73
2021/04/27 03:04:52;;;;;;;2.60;2.05;;;3.80;99.90;;;;;;5017526;28;20060;-75
2021/04/27 03:07:17;;;;;;;4.93;2.33;;;3.90;99.60;;;;;;5024822;28;20538;-74
2021/04/27 03:09:43;;;;;;;4.65;2.67;;;3.90;99.80;;;;;;5012929;28;20399;-75
2021/04/27 03:12:08;;;;;;;4.22;2.50;;;3.80;99.50;;;;;;5012991;28;20053;-75
2021/04/27 03:14:34;;;;;;;3.25;2.47;;;3.80;99.80;;;;;;5013964;28;20523;-75
2021/04/27 03:16:59;;;;;;;3.42;2.55;;;3.70;99.90;;;;;;5014236;28;20068;-74
2021/04/27 03:19:25;;;;;;;4.43;2.20;;;3.70;99.90;;;;;;5012839;28;20029;-75
2021/04/27 03:21:51;;;;;;;6.43;2.45;;;3.60;99.90;;;;;;5014073;28;20403;-74
2021/04/27 03:24:16;;;;;;;4.45;2.80;;;3.40;99.90;;;;;;5000737;28;20026;-74
2021/04/27 03:26:42;;;;;;;4.65;2.97;;;3.40;99.90;;;;;;5013863;28;20468;-73
2021/04/27 03:29:07;;;;;;;4.57;2.55;;;3.60;99.90;;;;;;5012774;28;20029;-75
2021/04/27 03:31:33;;;;;;;3.50;2.90;;;3.60;99.90;;;;;;5004591;28;20381;-73
2021/04/27 03:33:59;;;;;;;4.65;2.60;;;3.70;99.90;;;;;;5009728;28;20030;-74
2021/04/27 03:36:25;;;;;;;4.10;2.58;;;3.50;99.90;;;;;;5013833;28;20518;-74
2021/04/27 03:38:51;;;;;;;4.97;2.70;;;3.50;99.90;;;;;;5013641;28;20034;-74
2021/04/27 03:41:16;;;;;;;3.50;2.70;;;3.50;99.90;;;;;;5013639;28;20049;-74
2021/04/27 03:43:42;;;;;;;4.00;2.60;;;3.50;99.90;;;;;;5012172;28;20061;-74
2021/04/27 03:46:07;;;;;;;4.57;2.53;;;3.50;99.90;;;;;;5012353;28;20048;-74
2021/04/27 03:48:33;;;;;;;3.75;2.60;;;3.60;99.90;;;;;;5013205;28;20026;-73
2021/04/27 03:50:59;;;;;;;5.90;2.58;;;3.60;99.90;;;;;;5014002;28;20076;-72
2021/04/27 03:53:25;;;;;;;4.55;2.88;;;3.50;99.90;;;;;;5013197;28;20034;-74
2021/04/27 03:55:50;;;;;;;2.85;2.42;;;3.60;99.90;;;;;;5013286;28;20032;-72
2021/04/27 03:58:16;;;;;;;5.63;3.08;;;3.70;99.90;;;;;;5013398;28;20048;-74
2021/04/27 04:00:42;;;;;;;3.25;2.67;;;3.80;99.90;;;;;;5013354;28;20061;-75
2021/04/27 04:03:07;;;;;;;5.07;3.00;;;3.70;99.90;;;;;;5013196;28;20514;-76
2021/04/27 04:05:33;;;;;;;4.20;2.88;;;3.80;99.90;;;;;;5020460;28;20030;-74
2021/04/27 04:07:59;;;;;;;5.55;3.10;;;3.90;99.90;;;;;;5017634;28;20022;-73
2021/04/27 04:10:24;;;;;;;6.80;3.13;;;3.80;99.90;;;;;;5013130;28;20105;-74
2021/04/27 04:12:50;;;;;;;4.65;2.90;;;3.90;99.90;;;;;;5013131;28;20057;-72
2021/04/27 04:15:18;;;;;;;5.25;3.10;;;3.80;99.90;;;;;;5011653;28;20041;-72
2021/04/27 04:17:44;;;;;;;4.32;2.78;;;3.70;99.90;;;;;;5013544;28;20476;-74
2021/04/27 04:20:19;;;;;;;3.72;3.17;;;3.80;99.90;;;;;;5015114;28;20041;-74
2021/04/27 04:22:44;;;;;;;4.57;2.80;;;3.80;99.90;;;;;;5012216;28;20032;-73
2021/04/27 04:25:12;;;;;;;5.47;3.20;;;3.80;99.90;;;;;;5011891;28;20040;-73
2021/04/27 04:27:38;;;;;;;4.55;3.13;;;3.80;99.90;;;;;;5011489;28;20049;-72
2021/04/27 04:30:08;;;;;;;7.07;3.35;;;3.80;99.90;;;;;;5012897;28;20564;-72
2021/04/27 04:32:33;;;;;;;4.10;3.10;;;3.90;99.90;;;;;;5012705;28;20377;-72
2021/04/27 04:34:59;;;;;;;5.13;2.97;;;3.90;99.90;;;;;;5012693;28;20053;-74
2021/04/27 04:37:26;;;;;;;7.55;3.00;;;4.00;99.90;;;;;;5012760;28;20084;-74
2021/04/27 04:39:52;;;;;;;5.45;2.95;;;4.00;99.90;;;;;;5011422;28;20392;-72
2021/04/27 04:42:17;;;;;;;4.55;2.88;;;4.00;99.90;;;;;;5012334;28;20038;-73
2021/04/27 04:44:42;;;;;;;5.75;3.13;;;4.00;99.90;;;;;;5012004;28;20033;-73
2021/04/27 04:47:08;;;;;;;5.20;3.33;;;4.20;99.90;;;;;;5010973;28;20109;-73
2021/04/27 04:49:33;;;;;;;4.75;3.75;;;4.10;99.90;;;;;;5011237;28;20026;-72
2021/04/27 04:51:59;;;;;;;4.63;3.20;;;4.10;99.90;;;;;;5012253;28;20030;-73
2021/04/27 04:54:25;;;;;;;4.70;3.10;;;4.30;99.90;;;;;;5012441;28;20022;-73
2021/04/27 04:56:50;;;;;;;6.25;3.92;;;4.20;99.90;;;;;;5012532;28;20471;-73
2021/04/27 04:59:16;;;;;;;6.93;3.05;;;4.30;99.90;;;;;;5012498;28;20177;-73
2021/04/27 05:01:42;;;;;;;7.10;3.42;;;4.30;99.90;;;;;;5009948;28;20026;-72
2021/04/27 05:04:07;;;;;;;6.93;3.30;;;4.40;99.90;;;;;;5010789;28;20032;-74
2021/04/27 05:06:36;;;;;;;5.25;3.15;;;4.50;99.90;;;;;;5023836;28;20025;-73
2021/04/27 05:09:06;;;;;;;4.60;3.25;;;4.50;99.90;;;;;;5011098;28;20708;-73
2021/04/27 05:11:32;;;;;;;4.13;2.80;;;4.50;99.90;;;;;;5012182;28;20484;-73
2021/04/27 05:13:59;;;;;;;5.75;3.10;;;4.60;99.90;;;;;;5012111;28;20022;-73
2021/04/27 05:16:25;;;;;;;4.72;3.35;;;4.70;99.90;;;;;;5012270;28;20034;-72
2021/04/27 05:18:51;;;;;;;4.60;3.00;;;4.70;99.90;;;;;;5011115;28;20029;-72
2021/04/27 05:21:17;;;;;;;5.43;3.28;;;4.70;99.90;;;;;;5012226;28;20098;-70
2021/04/27 05:23:43;;;;;;;5.30;3.53;;;4.70;99.90;;;;;;5012487;28;20079;-74
2021/04/27 05:26:09;;;;;;;5.47;3.15;;;4.80;99.90;;;;;;5012044;28;20061;-73
2021/04/27 05:28:35;;;;;;;4.68;3.33;;;4.90;99.90;;;;;;5012140;28;20065;-73
2021/04/27 05:31:00;;;;;;;5.10;3.30;;;4.90;99.90;;;;;;5011956;28;20100;-72
2021/04/27 05:33:26;;;;;;;3.78;3.25;;;4.90;99.90;;;;;;5011698;28;20022;-73
2021/04/27 05:35:51;;;;;;;4.20;3.33;;;5.00;99.90;;;;;;5010912;28;20395;-72
2021/04/27 05:38:17;;;;;;;6.70;3.28;;;5.10;99.90;;;;;;5001582;28;20097;-73
2021/04/27 05:40:42;;;;;;;6.68;3.17;;;5.20;99.90;;;;;;5008829;28;20030;-72
2021/04/27 05:43:08;;;;;;;6.00;3.25;;;5.30;99.90;;;;;;5011928;28;20026;-71
2021/04/27 05:45:34;;;;;;;7.85;3.78;;;5.40;99.90;;;;;;4998535;28;20507;-72
2021/04/27 05:48:00;;;;;;;4.88;3.38;;;5.70;99.90;;;;;;5011800;28;20391;-73
2021/04/27 05:50:26;;;;;;;5.25;4.10;;;5.60;99.60;;;;;;4998692;28;20157;-72
2021/04/27 05:52:52;;;;;;;6.45;3.50;;;5.70;99.90;;;;;;5011134;28;20507;-72
2021/04/27 05:55:18;;;;;;;5.05;3.50;;;5.80;99.90;;;;;;5012540;28;20045;-72
2021/04/27 05:57:43;;;;;;;9.20;6.25;;;5.80;99.80;;;;;;5011210;28;20111;-72
2021/04/27 06:00:10;;;;;;;6.97;3.22;;;5.90;99.20;;;;;;5012146;28;20030;-73
2021/04/27 06:02:35;;;;;;;5.72;4.00;;;5.90;99.70;;;;;;5011562;28;20025;-73
2021/04/27 06:05:01;;;;;;;4.22;3.80;;;6.00;99.40;;;;;;5016618;28;20032;-69
2021/04/27 06:07:26;;;;;;;4.78;3.70;;;6.10;98.90;;;;;;5021441;28;20034;-72
2021/04/27 06:09:52;;;;;;;5.93;3.63;;;6.10;99.40;;;;;;5012063;28;20030;-68
2021/04/27 06:12:17;;;;;;;5.30;3.40;;;6.20;99.40;;;;;;5012441;28;20025;-72
2021/04/27 06:14:43;;;;;;;8.13;4.07;;;6.20;99.40;;;;;;5015447;28;20499;-72
2021/04/27 06:17:08;;;;;;;6.63;3.85;;;6.30;99.30;;;;;;5014285;28;20432;-72
2021/04/27 06:19:34;;;;;;;4.88;3.80;;;6.40;99.90;;;;;;5002212;28;20038;-73
2021/04/27 06:21:59;;;;;;;6.60;4.00;;;6.50;99.80;;;;;;5015480;28;20033;-72
2021/04/27 06:24:25;;;;;;;4.22;3.65;;;6.50;99.30;;;;;;5015400;28;20036;-72
2021/04/27 06:26:51;;;;;;;6.53;4.10;;;6.60;99.90;;;;;;5014294;28;20029;-72
2021/04/27 06:29:17;;;;;;;4.72;3.53;;;6.80;99.90;;;;;;5015715;28;20105;-72
2021/04/27 06:31:43;;;;;;;5.78;3.72;;;7.00;98.80;;;;;;5015989;28;20112;-72
2021/04/27 06:34:08;;;;;;;5.97;4.10;;;7.10;97.90;;;;;;5015488;28;20030;-72
2021/04/27 06:36:34;;;;;;;5.78;3.83;;;7.00;97.10;;;;;;5015573;28;20096;-72
2021/04/27 06:39:01;;;;;;;5.07;3.90;;;7.10;97.10;;;;;;5010930;28;20088;-73
2021/04/27 06:41:27;;;;;;;5.22;3.45;;;7.10;96.70;;;;;;5008665;28;20112;-73
2021/04/27 06:43:52;;;;;;;4.47;3.30;;;7.10;97.00;;;;;;5013967;28;20029;-73
2021/04/27 06:46:18;;;;;;;5.07;3.33;;;7.20;98.10;;;;;;5015334;28;20575;-72
2021/04/27 06:48:45;;;;;;;6.00;4.05;;;7.40;99.40;;;;;;5014937;28;20026;-72
2021/04/27 06:51:16;;;;;;;7.75;4.20;;;7.50;96.70;;;;;;5014973;28;20018;-72
2021/04/27 06:53:42;;;;;;;5.45;3.55;;;7.40;97.20;;;;;;5014867;28;20025;-72
2021/04/27 06:56:08;;;;;;;4.72;4.13;;;7.40;96.20;;;;;;5015101;28;20097;-73
2021/04/27 06:58:34;;;;;;;5.93;3.90;;;7.50;96.30;;;;;;5014964;28;20026;-73
2021/04/27 07:00:59;;;;;;;5.70;4.38;;;7.60;96.60;;;;;;5014775;28;20034;-73
2021/04/27 07:03:24;;;;;;;4.90;3.97;;;7.60;94.90;;;;;;5013340;28;20033;-73
2021/04/27 07:05:50;;;;;;;5.07;4.25;;;7.60;94.80;;;;;;5014443;28;20097;-73
2021/04/27 07:08:16;;;;;;;4.45;4.03;;;7.80;96.20;;;;;;5014567;28;20081;-72
2021/04/27 07:10:41;;;;;;;5.35;4.10;;;7.90;94.40;;;;;;5013465;28;20022;-73
2021/04/27 07:13:07;;;;;;;5.63;4.40;;;8.00;96.80;;;;;;5014455;28;20101;-73
2021/04/27 07:15:33;;;;;;;6.05;4.13;;;8.20;95.00;;;;;;5012977;28;20524;-73
2021/04/27 07:17:58;;;;;;;5.25;4.18;;;8.20;94.70;;;;;;5014414;28;20100;-73
2021/04/27 07:20:24;;;;;;;7.63;4.88;;;8.30;93.40;;;;;;5013147;28;20026;-73
2021/04/27 07:22:49;;;;;;;6.07;4.40;;;8.10;93.20;;;;;;5014030;28;20053;-72
2021/04/27 07:25:16;;;;;;;7.43;4.93;;;8.20;94.30;;;;;;5013890;28;20026;-74
2021/04/27 07:27:42;;;;;;;8.48;4.63;;;8.30;93.50;;;;;;5014151;28;20085;-73
2021/04/27 07:30:09;;;;;;;6.30;4.90;;;8.40;92.60;;;;;;5014721;28;20092;-73
2021/04/27 07:32:36;;;;;;;7.32;5.00;;;8.50;93.30;;;;;;5013264;28;20175;-73
2021/04/27 07:35:02;;;;;;;7.93;4.95;;;8.80;94.20;;;;;;5014428;28;20025;-73
2021/04/27 07:37:28;;;;;;;6.57;4.55;;;8.80;92.30;;;;;;5014000;28;20041;-73
2021/04/27 07:39:53;;;;;;;8.77;4.65;;;8.70;92.30;;;;;;5014215;28;20026;-73
2021/04/27 07:42:19;;;;;;;6.80;4.63;;;8.60;92.20;;;;;;4999214;28;20041;-73
2021/04/27 07:44:45;;;;;;;6.65;4.65;;;8.80;92.20;;;;;;5014074;28;20025;-73
2021/04/27 07:47:10;;;;;;;12.05;5.13;;;9.10;92.20;;;;;;5013818;28;20109;-73
2021/04/27 07:49:36;;;;;;;7.65;5.40;;;9.20;91.60;;;;;;5014709;28;20044;-73
2021/04/27 07:52:02;;;;;;;6.95;5.10;;;9.20;92.50;;;;;;5014604;28;20026;-73
2021/04/27 07:54:27;;;;;;;6.85;4.65;;;9.40;93.70;;;;;;5014542;28;20026;-73
2021/04/27 07:56:53;;;;;;;7.60;4.68;;;9.30;91.70;;;;;;5014748;28;20036;-72
2021/04/27 07:59:18;;;;;;;9.98;4.93;;;9.50;91.60;;;;;;5003898;28;20631;-73
2021/04/27 08:01:45;;;;;;;6.68;4.78;;;9.70;90.90;;;;;;5010642;28;20037;-72
2021/04/27 08:04:10;;;;;;;6.40;4.60;;;9.60;90.30;;;;;;5013849;28;20105;-72
2021/04/27 08:06:36;;;;;;;6.00;4.80;;;9.50;90.80;;;;;;5012400;28;20568;-72
2021/04/27 08:09:03;;;;;;;11.68;6.43;;;9.80;91.10;;;;;;5013213;28;20030;-72
2021/04/27 08:11:31;;;;;;;8.23;5.60;;;9.90;90.90;;;;;;5002612;28;20030;-73
2021/04/27 08:13:56;;;;;;;7.78;4.65;;;10.00;90.80;;;;;;5002278;28;20076;-73
2021/04/27 08:16:22;;;;;;;8.10;5.45;;;10.10;91.30;;;;;;5011653;28;20038;-73
2021/04/27 08:18:48;;;;;;;6.03;5.03;;;10.20;90.60;;;;;;5002625;28;20477;-73
2021/04/27 08:21:14;;;;;;;6.50;5.05;;;10.40;91.00;;;;;;5010209;28;20022;-72
2021/04/27 08:23:40;;;;;;;5.70;4.90;;;10.40;91.00;;;;;;5013831;28;20029;-73
2021/04/27 08:26:07;;;;;;;7.25;4.93;;;10.60;90.40;;;;;;5014141;28;20392;-72
2021/04/27 08:28:33;;;;;;;6.28;5.00;;;10.60;90.40;;;;;;5014079;28;20022;-72
2021/04/27 08:30:59;;;;;;;8.43;5.13;;;10.70;90.00;;;;;;5012235;28;20021;-72
2021/04/27 08:33:25;;;;;;;7.80;5.38;;;10.70;88.10;;;;;;5012078;28;20021;-72
2021/04/27 08:35:52;;;;;;;8.35;5.25;;;10.80;90.30;;;;;;5012024;28;20109;-73
2021/04/27 08:38:18;;;;;;;5.65;4.80;;;10.90;88.50;;;;;;5012960;28;20080;-72
2021/04/27 08:40:45;;;;;;;8.85;5.75;;;10.90;88.10;;;;;;5012971;28;20038;-73
2021/04/27 08:43:13;;;;;;;7.28;5.03;;;10.90;87.20;;;;;;5013335;28;20033;-73
2021/04/27 08:45:40;;;;;;;7.75;5.38;;;11.10;88.20;;;;;;5012775;28;20540;-73
2021/04/27 08:48:11;;;;;;;9.50;5.60;;;11.10;88.50;;;;;;5012913;28;20028;-72
2021/04/27 08:50:38;;;;;;;7.00;5.30;;;11.20;89.90;;;;;;5013201;28;20026;-73
2021/04/27 08:53:04;;;;;;;9.43;5.07;;;11.30;88.30;;;;;;5001709;28;20085;-73
2021/04/27 08:55:30;;;;;;;7.63;5.45;;;11.50;89.70;;;;;;5006576;28;20057;-73
2021/04/27 08:57:55;;;;;;;5.80;5.20;;;11.30;87.50;;;;;;5005182;28;20053;-73
2021/04/27 09:00:22;;;;;;;7.88;5.45;;;11.20;85.70;;;;;;5022875;28;20021;-73
2021/04/27 09:02:59;;;;;;;7.47;5.35;;;11.20;87.80;;;;;;5011738;28;20025;-73
2021/04/27 09:05:28;;;;;;;8.65;5.40;;;11.50;85.90;;;;;;5013083;28;20025;-73
2021/04/27 09:07:55;;;;;;;8.70;5.70;;;11.50;85.20;;;;;;5016356;28;20033;-73
2021/04/27 09:10:33;;;;;;;10.02;5.78;;;11.10;84.00;;;;;;5012778;28;20392;-73
2021/04/27 09:13:03;;;;;;;7.93;5.47;;;11.20;87.40;;;;;;5011229;28;20109;-73
2021/04/27 09:15:35;;;;;;;10.75;5.88;;;11.60;89.60;;;;;;5011182;28;20392;-72
2021/04/27 09:18:24;;;;;;;9.55;5.72;;;11.70;84.40;;;;;;5012441;28;20026;-73
2021/04/27 09:21:10;;;;;;;10.13;6.13;;;11.70;88.70;;;;;;5012750;28;20109;-72
2021/04/27 09:23:42;;;;;;;8.50;6.43;;;11.70;87.70;;;;;;5002657;28;20042;-73
2021/04/27 09:26:17;;;;;;;7.32;5.80;;;11.90;86.90;;;;;;5012263;28;20399;-73
2021/04/27 09:28:48;;;;;;;8.40;6.05;;;12.00;89.50;;;;;;5012324;28;20419;-73
2021/04/27 09:31:29;;;;;;;11.75;6.47;;;12.10;86.10;;;;;;5012656;28;20477;-73
2021/04/27 09:34:14;;;;;;;8.23;5.93;;;12.00;82.70;;;;;;5011649;28;20026;-73
2021/04/27 09:36:39;;;;;;;10.52;6.82;;;12.30;85.80;;;;;;5013122;28;20029;-72
2021/04/27 09:39:05;;;;;;;10.57;6.22;;;12.50;83.10;;;;;;5012183;28;20045;-72
2021/04/27 09:41:30;;;;;;;9.48;6.38;;;12.70;85.70;;;;;;5012280;28;20050;-73
2021/04/27 09:43:56;;;;;;;10.05;6.70;;;12.90;82.90;;;;;;5012910;28;20030;-73
2021/04/27 09:46:22;;;;;;;9.75;5.95;;;12.80;82.10;;;;;;5004228;28;20034;-73
2021/04/27 09:48:58;;;;;;;10.98;5.97;;;12.80;82.80;;;;;;5010736;28;20029;-73
2021/04/27 09:51:25;;;;;;;8.65;6.20;;;12.70;81.50;;;;;;5007986;28;20100;-73
2021/04/27 09:53:51;;;;;;;8.60;6.40;;;12.80;82.40;;;;;;5015901;28;20072;-73
2021/04/27 09:56:49;;;;;;;8.18;6.30;;;12.60;82.40;;;;;;5015878;28;20026;-73
2021/04/27 09:59:29;;;;;;;7.50;6.03;;;12.70;87.40;;;;;;5015775;28;20384;-73
2021/04/27 10:02:05;;;;;;;9.18;6.30;;;12.90;80.30;;;;;;5014932;28;20471;-73
2021/04/27 10:04:31;;;;;;;7.47;5.70;;;12.80;81.90;;;;;;5008267;28;20026;-74
2021/04/27 10:07:00;;;;;;;9.70;6.03;;;13.30;82.50;;;;;;5020428;28;20084;-73
2021/04/27 10:09:26;;;;;;;8.10;6.10;;;13.40;80.80;;;;;;5015618;28;20026;-73
2021/04/27 10:11:53;;;;;;;10.13;6.78;;;13.30;81.00;;;;;;5014384;28;20025;-73
2021/04/27 10:14:19;;;;;;;8.63;6.50;;;13.30;80.40;;;;;;5015845;28;20019;-73
2021/04/27 10:16:45;;;;;;;7.10;5.70;;;13.10;79.90;;;;;;5015685;28;20441;-73
2021/04/27 10:19:11;;;;;;;9.63;6.25;;;13.00;81.00;;;;;;5014754;28;20049;-73
2021/04/27 10:21:38;;;;;;;9.35;6.70;;;13.40;81.80;;;;;;5014346;28;20028;-73
2021/04/27 10:24:13;;;;;;;9.43;5.60;;;13.60;79.80;;;;;;5013864;28;20492;-73
2021/04/27 10:26:43;;;;;;;8.02;5.82;;;13.80;79.40;;;;;;5008215;28;20052;-74
2021/04/27 10:29:17;;;;;;;6.97;5.75;;;14.10;81.90;;;;;;5015400;28;20384;-73
2021/04/27 10:31:43;;;;;;;9.93;5.85;;;14.20;79.00;;;;;;5014316;28;20053;-73
2021/04/27 10:34:12;;;;;;;10.23;5.63;;;14.00;79.00;;;;;;5013639;28;20037;-73
2021/04/27 10:37:03;;;;;;;10.38;6.28;;;14.40;82.90;;;;;;5015079;28;20018;-74
2021/04/27 10:39:42;;;;;;;7.80;5.55;;;14.50;82.60;;;;;;5004504;28;20112;-72
2021/04/27 10:42:30;;;;;;;7.40;5.65;;;14.60;80.50;;;;;;5013384;28;20058;-73
2021/04/27 10:45:02;;;;;;;9.30;6.03;;;14.60;81.80;;;;;;5007520;28;20120;-73
2021/04/27 10:47:30;;;;;;;6.80;5.28;;;14.80;77.00;;;;;;5001661;28;20026;-73
2021/04/27 10:49:57;;;;;;;7.70;6.03;;;14.70;75.20;;;;;;5015046;28;20041;-73
2021/04/27 10:52:33;;;;;;;8.77;6.13;;;14.90;79.40;;;;;;5003401;28;20438;-73
2021/04/27 10:55:17;;;;;;;;;;;14.40;79.70;;;;;;5016170;28;20381;-73
2021/04/27 10:57:47;;;;;;;7.97;5.57;;;14.00;76.50;;;;;;5013153;28;19992;-72
2021/04/27 11:00:34;;;;;;;9.65;5.70;;;14.50;77.60;;;;;;5014687;28;20121;-74
2021/04/27 11:03:23;;;;;;;6.00;4.70;;;14.90;78.40;;;;;;5014760;28;20040;-73
2021/04/27 11:06:12;;;;;;;6.25;5.18;;;15.40;77.50;;;;;;5025582;28;20030;-73
2021/04/27 11:08:46;;;;;;;5.82;4.78;;;15.30;72.10;;;;;;5014663;28;20014;-73
2021/04/27 11:11:23;;;;;;;8.13;5.25;;;15.00;70.30;;;;;;5014526;28;20068;-72
2021/04/27 11:13:51;;;;;;;6.95;5.50;;;14.80;67.90;;;;;;5014716;28;20018;-73
2021/04/27 11:16:30;;;;;;;9.85;5.70;;;15.00;73.70;;;;;;5013451;28;20022;-73
2021/04/27 11:19:41;;;;;;;5.38;4.88;;;15.00;70.60;;;;;;5013822;28;20156;-73
2021/04/27 11:22:25;;;;;;;8.40;5.63;;;15.10;69.90;;;;;;4953876;29;20031;-73
2021/04/27 11:24:52;;;;;;;8.73;6.20;;;14.60;73.00;;;;;;5013213;28;20403;-73
2021/04/27 11:27:34;;;;;;;13.32;5.70;;;14.70;72.50;;;;;;5014180;28;20384;-73
2021/04/27 11:30:01;;;;;;;6.00;5.40;;;15.00;71.40;;;;;;5014353;28;20030;-72
2021/04/27 11:32:30;;;;;;;6.60;5.55;;;15.10;70.50;;;;;;5012973;28;20028;-73
2021/04/27 11:34:59;;;;;;;7.63;5.60;;;15.00;71.90;;;;;;5013622;28;20439;-73
2021/04/27 11:37:33;;;;;;;7.18;5.55;;;15.60;72.00;;;;;;5014199;28;20065;-73
2021/04/27 11:40:13;;;;;;;9.23;5.85;;;16.00;71.00;;;;;;5001505;28;20022;-73
2021/04/27 11:42:38;;;;;;;9.95;5.80;;;16.30;70.10;;;;;;5001053;28;20029;-74
2021/04/27 11:45:11;;;;;;;7.70;5.97;;;15.80;70.60;;;;;;5012499;28;20036;-73
2021/04/27 11:47:38;;;;;;;9.18;5.88;;;15.50;69.90;;;;;;5013760;28;20108;-73
2021/04/27 11:50:07;;;;;;;8.52;5.72;;;15.60;71.30;;;;;;5012750;28;20565;-72
2021/04/27 11:53:00;;;;;;;9.27;5.43;;;16.00;71.00;;;;;;5001920;28;20050;-72
2021/04/27 11:55:41;;;;;;;8.55;5.68;;;16.00;68.90;;;;;;5013441;28;20022;-72
2021/04/27 11:58:17;;;;;;;7.35;5.38;;;15.70;70.20;;;;;;5012275;28;20080;-73
2021/04/27 12:00:51;;;;;;;11.27;6.45;;;16.10;69.00;;;;;;5013569;28;20026;-73
2021/04/27 12:03:19;;;;;;;8.10;5.75;;;16.40;67.10;;;;;;5012013;28;20483;-73
2021/04/27 12:05:46;;;;;;;8.57;5.38;;;16.60;65.30;;;;;;5016326;28;20033;-72
2021/04/27 12:08:30;;;;;;;12.60;6.70;;;16.20;69.10;;;;;;5016227;28;20492;-73
2021/04/27 12:11:21;;;;;;;9.65;6.13;;;16.20;68.90;;;;;;5011891;28;20021;-73
2021/04/27 12:14:02;;;;;;;12.18;7.05;;;16.80;68.30;;;;;;5003047;28;20075;-72
2021/04/27 12:16:34;;;;;;;6.72;5.40;;;16.70;66.60;;;;;;5013181;28;20025;-72
2021/04/27 12:19:10;;;;;;;7.75;5.60;;;16.80;64.50;;;;;;5013223;28;20041;-73
2021/04/27 12:21:39;;;;;;;10.23;5.10;;;16.50;65.20;;;;;;4998933;28;20109;-72
2021/04/27 12:24:12;;;;;;;10.25;6.93;;;16.90;64.80;;;;;;4999771;28;20081;-73
2021/04/27 12:26:40;;;;;;;8.57;5.90;;;17.30;65.70;;;;;;5012926;28;20053;-72
2021/04/27 12:29:07;;;;;;;8.98;6.65;;;17.40;67.50;;;;;;5014004;28;20018;-72
2021/04/27 12:31:33;;;;;;;7.72;5.45;;;17.60;65.10;;;;;;5014155;28;20025;-73
2021/04/27 12:34:01;;;;;;;7.45;5.43;;;17.90;65.10;;;;;;5012131;28;20030;-72
2021/04/27 12:36:43;;;;;;;12.63;7.00;;;17.90;66.30;;;;;;5012276;28;20084;-72
2021/04/27 12:39:33;;;;;;;11.85;6.70;;;17.80;65.30;;;;;;5012629;28;20033;-74
2021/04/27 12:42:15;;;;;;;9.23;6.13;;;18.20;64.00;;;;;;5013489;28;20044;-74
2021/04/27 12:44:41;;;;;;;8.65;5.88;;;18.40;63.60;;;;;;5013143;28;20040;-72
2021/04/27 12:47:17;;;;;;;7.20;5.57;;;19.00;63.00;;;;;;5000156;28;20071;-73
2021/04/27 12:49:44;;;;;;;6.60;5.07;;;19.10;60.70;;;;;;5013636;28;20033;-73
2021/04/27 12:52:14;;;;;;;5.75;5.07;;;19.50;61.40;;;;;;5000371;28;20022;-72
2021/04/27 12:54:41;;;;;;;6.70;5.70;;;19.40;60.10;;;;;;5013319;28;20026;-73
2021/04/27 12:57:18;;;;;;;8.07;5.57;;;19.50;59.20;;;;;;5013560;28;20041;-73
2021/04/27 12:59:46;;;;;;;6.85;4.97;;;18.90;60.40;;;;;;5000498;28;20036;-73